Historique des mesures à Cassis (13260), France
Quotidien Résumé Fevrier 9, 2017 Unités:  US    Métrique   Métrique/US
« Précédent (Jour)
Suivant (Jour) »
Quotidien Hebdomadaire Mensuel Annuel Période au choix
  Maximum: Minimum: Moyenne:
Température: 32 °F 45.9 °F 48.2 °F
Point de rosée: 32 °F 38.1 °F 40.1 °F
Humidité: Humidity % 65 % 70 %
Vitesse du vent: WindSpeedKMH mph 0.0 mph 0.8 mph
Rafales: WindSpeedGustKMH mph - -
Vent:- - SE
Pression: 0 in 29.9 in -
Précipitations: 12.7 in    
Historical Graphs
 
 
Mesures pour : Fevrier 9, 2017
Heure Temperature Point de rosée Pression Vent Vitesse du vent Rafales Humidité Pluie (par heure) Conditions
32 °F 32 °F 0 in Calm     Humidity % 0 in SoftwareType W/m2
00:11 48.4 °F 39.4 °F 29.9 in Calm     71 % 0 in open2300-1.11 W/m2
01:10 48.7 °F 38.7 °F 29.9 in ENE 1.4 mph 1.4 mph 68 % 0 in open2300-1.11 W/m2
02:11 47.8 °F 38.5 °F 29.9 in NW 3.5 mph 3.5 mph 70 % 0 in open2300-1.11 W/m2
03:10 47.5 °F 38.1 °F 29.9 in Calm     70 % 0 in open2300-1.11 W/m2
04:11 46.9 °F 38.5 °F 29.9 in North 2.6 mph 3.2 mph 72 % 0 in open2300-1.11 W/m2
05:10 46.9 °F 38.7 °F 29.9 in Calm     73 % 0 in open2300-1.11 W/m2
06:11 46.6 °F 38.1 °F 29.9 in Calm     72 % 0 in open2300-1.11 W/m2
07:10 45.9 °F 38.7 °F 29.9 in NNW 1.4 mph 1.4 mph 76 % 0 in open2300-1.11 W/m2
08:11 46.6 °F 39.4 °F 29.9 in Calm     76 % 0 in open2300-1.11 W/m2
09:10 47.8 °F 39.2 °F 29.9 in WNW 5.8 mph 5.8 mph 72 % 0 in open2300-1.11 W/m2
10:11 49.1 °F 40.1 °F 29.9 in Calm     71 % 0 in open2300-1.11 W/m2
11:10 49.3 °F 40.3 °F 29.9 in Calm     71 % 0 in open2300-1.11 W/m2
12:11 50.7 °F 41 °F 29.9 in Calm   2.6 mph 69 % 0 in open2300-1.11 W/m2
13:10 52.7 °F 42.1 °F 29.9 in North 2.6 mph 2.6 mph 67 % 0 in open2300-1.11 W/m2
14:11 53.8 °F 42.3 °F 29.9 in Calm     65 % 0 in open2300-1.11 W/m2
15:11 53.2 °F 43 °F 29.9 in Calm     68 % 0 in open2300-1.11 W/m2
16:11 51.4 °F 42.8 °F 29.9 in North 1.8 mph 2.1 mph 72 % 0 in open2300-1.11 W/m2
17:10 49.8 °F 41.7 °F 29.9 in Calm     74 % 0 in open2300-1.11 W/m2
18:11 49.8 °F 42.4 °F 29.9 in Calm     76 % 0 in open2300-1.11 W/m2
19:11 48.9 °F 42.3 °F 30 in Calm     78 % 12.7 in open2300-1.11 W/m2
20:11 48.7 °F 42.1 °F 30 in Calm     78 % 0 in open2300-1.11 W/m2
21:10 48.4 °F 42.1 °F 30 in Calm     79 % 0 in open2300-1.11 W/m2
22:11 48 °F 41.7 °F 30 in Calm     79 % 0 in open2300-1.11 W/m2
23:10 48 °F 41.4 °F 30 in Calm     78 % 0 in open2300-1.11 W/m2
Observations météo à CASSIS
WU-History script by Weather Underground - 1 mb